createdAt,value
2018-03-01T19:59:13.751Z,1.80
2018-03-01T20:02:22.748Z,2.03
2018-03-01T20:05:39.434Z,2.17
2018-03-01T20:08:55.857Z,1.60
2018-03-01T20:12:05.020Z,2.73
2018-03-01T20:15:25.216Z,2.47
2018-03-01T20:18:39.269Z,2.10
2018-03-01T20:21:51.515Z,2.57
2018-03-01T20:25:19.646Z,2.00
2018-03-01T20:28:41.416Z,2.23
2018-03-01T20:31:58.151Z,2.80
2018-03-01T20:35:22.569Z,2.03
2018-03-01T20:38:39.987Z,2.10
2018-03-01T20:41:59.723Z,2.10
2018-03-01T20:45:21.352Z,2.10
2018-03-01T20:48:41.470Z,2.33
2018-03-01T20:52:06.839Z,2.10
2018-03-01T20:55:36.573Z,2.97
2018-03-01T20:58:54.597Z,2.40
2018-03-01T21:02:17.242Z,2.23
2018-03-01T21:05:45.083Z,2.47
2018-03-01T21:09:15.118Z,2.47
2018-03-01T21:12:31.105Z,2.83
2018-03-01T21:15:38.147Z,2.30
2018-03-01T21:18:43.667Z,2.30
2018-03-01T21:21:49.267Z,2.43
2018-03-01T21:24:55.042Z,2.43
2018-03-01T21:28:00.589Z,2.40
2018-03-01T21:31:05.899Z,2.07
2018-03-01T21:34:11.498Z,2.37
2018-03-01T21:37:18.109Z,2.90
2018-03-01T21:40:23.766Z,2.67
2018-03-01T21:43:45.374Z,2.70
2018-03-01T21:47:29.577Z,2.37
2018-03-01T21:51:00.812Z,2.23
2018-03-01T21:54:32.225Z,1.67
2018-03-01T21:58:08.103Z,2.50
2018-03-01T22:01:38.617Z,2.63
2018-03-01T22:04:53.505Z,2.87
2018-03-01T22:08:00.418Z,2.53
2018-03-01T22:11:05.961Z,2.60
2018-03-01T22:14:11.490Z,3.20
2018-03-01T22:17:16.830Z,2.70
2018-03-01T22:20:22.338Z,2.73
2018-03-01T22:23:27.762Z,2.97
2018-03-01T22:26:33.289Z,3.87
2018-03-01T22:29:38.853Z,4.87
2018-03-01T22:32:44.372Z,3.07
2018-03-01T22:35:49.967Z,3.73
2018-03-01T22:38:55.479Z,4.37
2018-03-01T22:42:01.081Z,3.80
2018-03-01T22:45:06.614Z,3.57
2018-03-01T22:48:12.305Z,4.30
2018-03-01T22:51:17.868Z,3.30
2018-03-01T22:54:23.450Z,3.07
2018-03-01T22:57:29.035Z,2.80
2018-03-01T23:00:45.344Z,3.00
2018-03-01T23:03:50.697Z,3.40
2018-03-01T23:06:56.634Z,2.70
2018-03-01T23:10:01.969Z,2.40
2018-03-01T23:13:07.657Z,2.57
2018-03-01T23:16:13.170Z,2.93
2018-03-01T23:19:18.792Z,3.17
2018-03-01T23:22:24.069Z,3.43
2018-03-01T23:25:29.619Z,2.60
2018-03-01T23:28:35.159Z,3.23
2018-03-01T23:31:41.052Z,2.37
2018-03-01T23:34:46.336Z,2.50
2018-03-01T23:37:51.922Z,2.30
2018-03-01T23:40:57.515Z,2.40
2018-03-01T23:44:02.774Z,2.37
2018-03-01T23:47:08.389Z,2.80
2018-03-01T23:50:14.141Z,2.43
2018-03-01T23:53:19.674Z,2.90
2018-03-01T23:56:25.234Z,2.93
2018-03-01T23:59:30.792Z,2.67
